Bargerville, Illinois
Current Conditions -  °F | °C
As of 5:35 PM on Saturday 22 Nov 2014 (Local Time) from KM30 Reporting Station
Overcast Overcast  
Wind Chill: 16°   Ceiling: 5500
Heat Index: 16°   Visibility: 10mi
Dew Point:   Wind: 3mph
Humidity: 44%   Direction: 170°S
Pressure: 30.03"   Gusts: NA
Location:  37.2288°N, 88.7044°W
Report Text: KM30 222335Z AUTO 17003KT 10SM OVC055 16/04 A3003 RMK AO2 T01620038
Loading
Personal Weather Stations






























Interactive Weather Map New forecast layout! Learn more

10-Day Weather Forecast

Advertisements
Track Severe Weather on mobile